Time;durP1;ratioP1;P1;durP2;ratioP2;P2;SDS_P1;SDS_P2;PMS_P1;PMS_P2;Temp;Humidity;BMP_temperature;BMP_pressure;BME280_temperature;BME280_humidity;BME280_pressure;Samples;Min_cycle;Max_cycle;Signal;HPM_P1;HPM_P2
2023/03/10 00:01:36;;;;;;;;;;;9.60;99.90;;;;;;4966898;28;19944;-84
2023/03/10 00:04:03;;;;;;;;;;;9.70;99.90;;;;;;4981738;28;19926;-85
2023/03/10 00:06:32;;;;;;;;;;;9.70;99.90;;;;;;4969054;28;19930;-83
2023/03/10 00:08:59;;;;;;;;;;;9.70;99.90;;;;;;4970759;28;19934;-83
2023/03/10 00:11:26;;;;;;;;;;;9.70;99.90;;;;;;4977920;28;19988;-84
2023/03/10 00:13:55;;;;;;;;;;;9.70;99.90;;;;;;4979213;28;19953;-85
2023/03/10 00:16:23;;;;;;;;;;;9.70;99.90;;;;;;4971763;28;19929;-82
2023/03/10 00:18:50;;;;;;;;;;;9.70;99.90;;;;;;4966195;28;20557;-84
2023/03/10 00:21:18;;;;;;;;;;;9.80;99.90;;;;;;4966041;28;19935;-84
2023/03/10 00:23:46;;;;;;;;;;;9.80;99.90;;;;;;4972711;28;20385;-84
2023/03/10 00:26:14;;;;;;;;;;;9.60;99.90;;;;;;4971329;28;20403;-84
2023/03/10 00:28:41;;;;;;;;;;;9.70;99.90;;;;;;4969671;28;19934;-84
2023/03/10 00:31:08;;;;;;;;;;;9.70;99.90;;;;;;4965642;28;19962;-84
2023/03/10 00:33:36;;;;;;;;;;;9.70;99.90;;;;;;4982616;28;19930;-86
2023/03/10 00:36:04;;;;;;;;;;;9.20;99.90;;;;;;4971836;28;20496;-84
2023/03/10 00:38:31;;;;;;;;;;;9.60;99.90;;;;;;4988015;28;19937;-85
2023/03/10 00:41:00;;;;;;;;;;;9.60;99.90;;;;;;4969216;28;19932;-86
2023/03/10 00:43:28;;;;;;;;;;;10.00;99.90;;;;;;4970187;28;19973;-85
2023/03/10 00:45:55;;;;;;;;;;;9.70;99.90;;;;;;4970755;28;19929;-84
2023/03/10 00:48:22;;;;;;;;;;;9.80;99.90;;;;;;4971241;28;20320;-84
2023/03/10 00:50:49;;;;;;;;;;;9.70;99.90;;;;;;4969454;28;19926;-82
2023/03/10 00:53:15;;;;;;;;;;;9.70;99.90;;;;;;4968921;28;19926;-83
2023/03/10 00:55:42;;;;;;;;;;;9.80;99.90;;;;;;4968805;28;21256;-83
2023/03/10 00:58:10;;;;;;;;;;;9.80;99.90;;;;;;4966738;28;19926;-84
2023/03/10 01:00:37;;;;;;;;;;;9.80;99.90;;;;;;4971083;28;19930;-83
2023/03/10 01:03:04;;;;;;;;;;;9.70;99.90;;;;;;4987419;28;19925;-83
2023/03/10 01:05:31;;;;;;;;;;;9.80;99.90;;;;;;4971148;28;19926;-84
2023/03/10 01:07:58;;;;;;;;;;;10.00;99.90;;;;;;4983122;28;19930;-85
2023/03/10 01:10:25;;;;;;;;;;;10.60;99.90;;;;;;4975526;28;19953;-84
2023/03/10 01:12:52;;;;;;;;;;;9.90;99.90;;;;;;4978465;28;19930;-83
2023/03/10 01:15:23;;;;;;;;;;;10.00;99.90;;;;;;4976788;28;20832;-83
2023/03/10 01:17:49;;;;;;;;;;;9.90;99.90;;;;;;4988132;28;19937;-84
2023/03/10 01:20:17;;;;;;;;;;;10.00;99.90;;;;;;4985959;28;19937;-84
2023/03/10 01:22:44;;;;;;;;;;;10.10;99.90;;;;;;4974506;28;20016;-83
2023/03/10 01:25:13;;;;;;;;;;;10.00;99.90;;;;;;4988150;28;20309;-84
2023/03/10 01:27:40;;;;;;;;;;;10.00;99.90;;;;;;4982537;28;20501;-84
2023/03/10 01:30:07;;;;;;;;;;;10.00;99.90;;;;;;4972941;28;20025;-82
2023/03/10 01:32:37;;;;;;;;;;;10.00;99.90;;;;;;4973604;28;19965;-82
2023/03/10 01:35:04;;;;;;;;;;;10.00;99.90;;;;;;4982488;28;20539;-83
2023/03/10 01:37:31;;;;;;;;;;;10.10;99.90;;;;;;4982115;28;19922;-82
2023/03/10 01:39:57;;;;;;;;;;;9.60;99.90;;;;;;4961108;28;19930;-83
2023/03/10 01:42:34;;;;;;;;;;;;;;;;;;4977786;28;19929;-84
2023/03/10 01:47:54;;;;;;;;;;;9.80;99.90;;;;;;4989074;28;19929;-84
2023/03/10 01:50:22;;;;;;;;;;;8.80;99.90;;;;;;4968819;28;19932;-83
2023/03/10 01:52:55;;;;;;;;;;;9.90;99.90;;;;;;4967404;28;20025;-85
2023/03/10 01:55:24;;;;;;;;;;;9.80;99.90;;;;;;4967285;28;19984;-84
2023/03/10 01:57:52;;;;;;;;;;;9.80;99.90;;;;;;4967161;28;20294;-84
2023/03/10 02:00:20;;;;;;;;;;;8.70;99.90;;;;;;4966137;28;19930;-84
2023/03/10 02:02:49;;;;;;;;;;;9.70;99.90;;;;;;4968138;28;19929;-85
2023/03/10 02:05:18;;;;;;;;;;;9.80;99.90;;;;;;4963233;28;19925;-84
2023/03/10 02:07:45;;;;;;;;;;;9.70;99.90;;;;;;4965626;28;19961;-83
2023/03/10 02:10:13;;;;;;;;;;;9.70;99.90;;;;;;4969325;28;19926;-84
2023/03/10 02:12:42;;;;;;;;;;;9.70;99.90;;;;;;4972653;28;19989;-84
2023/03/10 02:15:09;;;;;;;;;;;9.70;99.90;;;;;;4968909;28;20000;-85
2023/03/10 02:17:42;;;;;;;;;;;9.70;99.90;;;;;;4973724;28;19934;-83
2023/03/10 02:20:19;;;;;;;;;;;9.80;99.90;;;;;;4957274;28;20030;-83
2023/03/10 02:22:48;;;;;;;;;;;9.80;99.90;;;;;;4987411;28;19922;-84
2023/03/10 02:25:23;;;;;;;;;;;9.80;99.90;;;;;;4961686;28;19941;-83
2023/03/10 02:27:53;;;;;;;;;;;9.80;99.90;;;;;;4973617;28;19981;-84
2023/03/10 02:30:22;;;;;;;;;;;9.70;99.90;;;;;;4973461;28;19949;-83
2023/03/10 02:32:52;;;;;;;;;;;9.80;99.90;;;;;;4976066;28;20554;-84
2023/03/10 02:35:21;;;;;;;;;;;9.70;99.90;;;;;;4971331;28;19957;-84
2023/03/10 02:38:03;;;;;;;;;;;9.80;99.90;;;;;;4973283;28;19949;-84
2023/03/10 02:40:40;;;;;;;;;;;9.80;99.90;;;;;;4986802;28;20761;-83
2023/03/10 02:43:21;;;;;;;;;;;9.80;99.90;;;;;;4995605;28;19965;-83
2023/03/10 02:45:53;;;;;;;;;;;9.80;99.90;;;;;;4985499;28;20001;-84
2023/03/10 02:48:26;;;;;;;;;;;9.70;99.90;;;;;;4994593;28;19988;-84
2023/03/10 02:50:53;;;;;;;;;;;9.80;99.90;;;;;;4968211;28;20372;-84
2023/03/10 02:53:27;;;;;;;;;;;9.70;99.90;;;;;;4993502;28;19985;-82
2023/03/10 02:55:54;;;;;;;;;;;9.70;99.90;;;;;;4994371;28;20376;-82
2023/03/10 02:58:30;;;;;;;;;;;9.30;99.90;;;;;;4978705;28;19925;-82
2023/03/10 03:01:03;;;;;;;;;;;9.80;99.90;;;;;;4979433;28;19922;-82
2023/03/10 03:03:37;;;;;;;;;;;9.80;99.90;;;;;;5000946;28;19926;-83
2023/03/10 03:06:05;;;;;;;;;;;9.70;99.90;;;;;;5005018;28;19942;-83
2023/03/10 03:08:41;;;;;;;;;;;9.60;99.90;;;;;;4993681;28;19922;-83
2023/03/10 03:11:10;;;;;;;;;;;9.70;99.90;;;;;;4985423;28;19930;-80
2023/03/10 03:13:38;;;;;;;;;;;9.70;99.90;;;;;;4994888;28;19910;-81
2023/03/10 03:16:06;;;;;;;;;;;9.60;99.90;;;;;;4973399;28;19922;-81
2023/03/10 03:18:34;;;;;;;;;;;9.70;99.90;;;;;;4982492;28;19926;-81
2023/03/10 03:21:03;;;;;;;;;;;9.70;99.90;;;;;;4974416;28;20409;-80
2023/03/10 03:23:30;;;;;;;;;;;10.00;99.90;;;;;;4992436;28;19926;-81
2023/03/10 03:25:57;;;;;;;;;;;9.70;99.90;;;;;;4967423;28;19945;-80
2023/03/10 03:28:23;;;;;;;;;;;9.70;99.90;;;;;;4979570;28;19960;-82
2023/03/10 03:30:53;;;;;;;;;;;9.30;99.90;;;;;;4968576;28;20021;-81
2023/03/10 03:33:20;;;;;;;;;;;9.80;99.90;;;;;;4972812;28;19929;-82
2023/03/10 03:35:47;;;;;;;;;;;9.60;99.90;;;;;;4974223;28;19925;-81
2023/03/10 03:38:17;;;;;;;;;;;9.80;99.90;;;;;;4974962;28;19926;-81
2023/03/10 03:40:44;;;;;;;;;;;9.90;99.90;;;;;;4991131;28;20311;-81
2023/03/10 03:43:14;;;;;;;;;;;9.90;99.90;;;;;;4970699;28;20446;-81
2023/03/10 03:45:41;;;;;;;;;;;10.00;99.90;;;;;;4959515;28;19942;-81
2023/03/10 03:48:12;;;;;;;;;;;9.80;99.90;;;;;;4968287;28;19931;-80
2023/03/10 03:50:39;;;;;;;;;;;9.80;99.90;;;;;;4999575;28;20179;-81
2023/03/10 03:53:15;;;;;;;;;;;9.70;99.90;;;;;;4987481;28;19941;-81
2023/03/10 03:55:41;;;;;;;;;;;9.80;99.90;;;;;;4957005;28;20348;-82
2023/03/10 03:58:09;;;;;;;;;;;9.70;99.90;;;;;;4984278;28;19937;-81
2023/03/10 04:00:38;;;;;;;;;;;9.80;99.90;;;;;;4970495;28;20347;-82
2023/03/10 04:03:07;;;;;;;;;;;9.80;99.90;;;;;;4968998;28;20609;-81
2023/03/10 04:05:35;;;;;;;;;;;10.20;99.90;;;;;;4972254;28;19929;-81
2023/03/10 04:08:04;;;;;;;;;;;9.70;99.90;;;;;;4970828;28;20001;-81
2023/03/10 04:10:31;;;;;;;;;;;9.70;99.90;;;;;;4963018;28;19922;-81
2023/03/10 04:12:58;;;;;;;;;;;9.00;99.90;;;;;;4976355;28;19930;-82
2023/03/10 04:15:25;;;;;;;;;;;9.70;99.90;;;;;;4988899;28;20552;-81
2023/03/10 04:17:52;;;;;;;;;;;9.60;99.90;;;;;;4981173;28;19932;-82
2023/03/10 04:20:19;;;;;;;;;;;9.10;99.90;;;;;;4984770;28;20021;-82
2023/03/10 04:22:51;;;;;;;;;;;9.60;99.90;;;;;;4974065;28;19993;-81
2023/03/10 04:25:21;;;;;;;;;;;9.50;99.90;;;;;;4977113;28;20359;-82
2023/03/10 04:27:48;;;;;;;;;;;9.50;99.90;;;;;;4986025;28;20020;-81
2023/03/10 04:30:15;;;;;;;;;;;9.40;99.90;;;;;;4968898;28;20027;-81
2023/03/10 04:32:46;;;;;;;;;;;9.50;99.90;;;;;;4985173;28;19933;-81
2023/03/10 04:35:13;;;;;;;;;;;9.50;99.90;;;;;;4969747;28;20557;-81
2023/03/10 04:37:43;;;;;;;;;;;9.40;99.90;;;;;;4969407;28;19988;-81
2023/03/10 04:40:14;;;;;;;;;;;9.40;99.90;;;;;;4985252;28;20413;-81
2023/03/10 04:42:41;;;;;;;;;;;9.30;99.90;;;;;;4968765;28;19988;-82
2023/03/10 04:45:09;;;;;;;;;;;9.40;99.90;;;;;;4985417;28;20017;-82
2023/03/10 04:47:36;;;;;;;;;;;9.50;99.90;;;;;;4985633;28;19926;-81
2023/03/10 04:50:03;;;;;;;;;;;9.50;99.90;;;;;;4975779;28;20398;-81
2023/03/10 04:52:30;;;;;;;;;;;9.50;99.90;;;;;;4969992;28;19949;-82
2023/03/10 04:54:57;;;;;;;;;;;9.50;99.90;;;;;;4984297;28;20020;-82
2023/03/10 04:57:26;;;;;;;;;;;9.50;99.90;;;;;;4971354;28;19972;-81
2023/03/10 04:59:54;;;;;;;;;;;9.30;99.90;;;;;;4969879;28;19984;-80
2023/03/10 05:02:22;;;;;;;;;;;9.50;99.90;;;;;;4969231;28;20400;-83
2023/03/10 05:04:50;;;;;;;;;;;9.50;99.90;;;;;;4972992;28;19922;-82
2023/03/10 05:07:16;;;;;;;;;;;9.60;99.90;;;;;;4981892;28;20555;-82
2023/03/10 05:09:47;;;;;;;;;;;9.40;99.90;;;;;;4972949;28;20044;-82
2023/03/10 05:12:14;;;;;;;;;;;9.50;99.90;;;;;;4976421;28;19933;-81
2023/03/10 05:14:42;;;;;;;;;;;9.50;99.90;;;;;;4996569;28;19962;-82
2023/03/10 05:17:10;;;;;;;;;;;9.60;99.90;;;;;;4973636;28;20568;-81
2023/03/10 05:19:37;;;;;;;;;;;8.90;99.90;;;;;;4973704;28;20017;-83
2023/03/10 05:22:05;;;;;;;;;;;9.40;99.90;;;;;;4984992;28;19925;-79
2023/03/10 05:24:34;;;;;;;;;;;9.90;99.90;;;;;;4970198;28;19922;-82
2023/03/10 05:27:02;;;;;;;;;;;10.80;99.90;;;;;;4965104;28;20396;-82
2023/03/10 05:29:29;;;;;;;;;;;9.40;99.90;;;;;;4976972;28;19930;-82
2023/03/10 05:32:03;;;;;;;;;;;9.30;99.90;;;;;;4990540;28;19928;-83
2023/03/10 05:34:35;;;;;;;;;;;9.40;99.90;;;;;;5020502;28;19926;-85
2023/03/10 05:37:03;;;;;;;;;;;9.40;99.90;;;;;;4993718;28;19933;-84
2023/03/10 05:39:30;;;;;;;;;;;9.00;99.90;;;;;;4966785;28;19926;-85
2023/03/10 05:42:01;;;;;;;;;;;9.20;99.90;;;;;;4996962;28;19983;-84
2023/03/10 05:44:31;;;;;;;;;;;8.60;99.90;;;;;;5002063;28;19925;-83
2023/03/10 05:46:59;;;;;;;;;;;9.20;99.90;;;;;;4990443;28;19930;-82
2023/03/10 05:49:27;;;;;;;;;;;9.20;99.90;;;;;;4974170;28;19922;-82
2023/03/10 05:51:54;;;;;;;;;;;9.20;99.90;;;;;;4990248;28;20021;-84
2023/03/10 05:54:21;;;;;;;;;;;9.20;99.90;;;;;;4976356;28;19929;-84
2023/03/10 05:56:48;;;;;;;;;;;8.90;99.90;;;;;;4972886;28;19926;-83
2023/03/10 05:59:15;;;;;;;;;;;9.30;99.90;;;;;;4989143;28;20060;-83
2023/03/10 06:01:41;;;;;;;;;;;9.30;99.90;;;;;;4955995;28;19933;-83
2023/03/10 06:04:09;;;;;;;;;;;9.30;99.90;;;;;;4973523;28;20461;-81
2023/03/10 06:06:37;;;;;;;;;;;9.00;99.90;;;;;;4976685;28;20114;-81
2023/03/10 06:09:06;;;;;;;;;;;10.10;99.90;;;;;;4973223;28;20359;-81
2023/03/10 06:11:33;;;;;;;;;;;9.40;99.90;;;;;;4961192;28;19926;-81
2023/03/10 06:14:00;;;;;;;;;;;;;;;;;;4974845;28;19929;-81
2023/03/10 06:16:28;;;;;;;;;;;10.50;99.90;;;;;;4973815;28;19933;-81
2023/03/10 06:18:55;;;;;;;;;;;9.40;99.90;;;;;;4973602;28;20008;-82
2023/03/10 06:21:22;;;;;;;;;;;9.30;99.90;;;;;;4962777;28;19949;-82
2023/03/10 06:23:51;;;;;;;;;;;9.40;99.90;;;;;;4972160;28;20389;-82
2023/03/10 06:26:18;;;;;;;;;;;9.40;99.90;;;;;;4979172;28;19969;-81
2023/03/10 06:28:46;;;;;;;;;;;9.50;99.90;;;;;;4994616;28;19933;-80
2023/03/10 06:31:14;;;;;;;;;;;9.50;99.90;;;;;;4987269;28;19953;-79
2023/03/10 06:33:41;;;;;;;;;;;9.60;99.90;;;;;;4989026;28;19926;-80
2023/03/10 06:36:09;;;;;;;;;;;9.70;99.90;;;;;;4999124;28;19917;-79
2023/03/10 06:38:35;;;;;;;;;;;9.70;99.90;;;;;;4985352;28;19949;-80
2023/03/10 06:41:04;;;;;;;;;;;9.70;99.90;;;;;;4985607;28;19922;-82
2023/03/10 06:43:31;;;;;;;;;;;9.70;99.90;;;;;;4993532;28;19930;-82
2023/03/10 06:45:57;;;;;;;;;;;9.70;99.90;;;;;;4991862;28;19916;-82
2023/03/10 06:48:26;;;;;;;;;;;9.70;99.90;;;;;;4982366;28;19928;-81
2023/03/10 06:50:53;;;;;;;;;;;9.70;99.90;;;;;;4975100;28;19926;-83
2023/03/10 06:53:20;;;;;;;;;;;9.80;99.90;;;;;;4971326;28;20119;-82
2023/03/10 06:55:56;;;;;;;;;;;9.80;99.90;;;;;;4974519;28;19984;-81
2023/03/10 06:58:25;;;;;;;;;;;10.10;99.90;;;;;;4956492;28;19926;-81
2023/03/10 07:00:51;;;;;;;;;;;9.90;99.90;;;;;;4971852;28;19933;-82
2023/03/10 07:03:18;;;;;;;;;;;10.00;99.90;;;;;;4976444;28;19933;-82
2023/03/10 07:05:45;;;;;;;;;;;10.10;99.90;;;;;;4971427;28;19922;-82
2023/03/10 07:08:12;;;;;;;;;;;10.10;99.90;;;;;;4963958;28;19933;-83
2023/03/10 07:10:38;;;;;;;;;;;10.20;99.90;;;;;;4985258;28;19926;-83
2023/03/10 07:13:05;;;;;;;;;;;10.30;99.90;;;;;;4970904;28;19929;-82
2023/03/10 07:15:33;;;;;;;;;;;10.60;99.90;;;;;;4972041;28;19926;-83
2023/03/10 07:18:00;;;;;;;;;;;10.30;99.90;;;;;;4970538;28;19936;-84
2023/03/10 07:20:27;;;;;;;;;;;10.40;99.90;;;;;;4970145;28;20312;-83
2023/03/10 07:22:54;;;;;;;;;;;10.20;99.90;;;;;;4971626;28;19980;-82
2023/03/10 07:25:21;;;;;;;;;;;10.40;99.90;;;;;;4972586;28;19950;-82
2023/03/10 07:27:47;;;;;;;;;;;10.40;99.90;;;;;;5009427;28;19996;-82
2023/03/10 07:30:14;;;;;;;;;;;10.40;99.90;;;;;;4976791;28;19922;-81
2023/03/10 07:32:42;;;;;;;;;;;10.00;99.90;;;;;;4983250;28;19926;-80
2023/03/10 07:35:10;;;;;;;;;;;10.30;99.90;;;;;;4957529;28;19926;-82
2023/03/10 07:37:37;;;;;;;;;;;10.40;99.90;;;;;;4969883;28;19926;-83
2023/03/10 07:40:04;;;;;;;;;;;10.40;99.90;;;;;;4985560;28;20006;-83
2023/03/10 07:42:31;;;;;;;;;;;10.40;99.90;;;;;;4967489;28;19930;-83
2023/03/10 07:44:58;;;;;;;;;;;10.40;99.90;;;;;;4961297;28;20377;-83
2023/03/10 07:47:25;;;;;;;;;;;10.40;99.90;;;;;;4970315;28;19940;-82
2023/03/10 07:49:53;;;;;;;;;;;10.50;99.90;;;;;;4969078;28;19922;-82
2023/03/10 07:52:20;;;;;;;;;;;10.50;99.90;;;;;;4985543;28;19922;-82
2023/03/10 07:54:47;;;;;;;;;;;10.50;99.90;;;;;;4971978;28;19930;-81
2023/03/10 07:57:14;;;;;;;;;;;10.30;99.90;;;;;;4970105;28;19949;-82
2023/03/10 07:59:44;;;;;;;;;;;10.50;99.90;;;;;;4956437;28;20360;-82
2023/03/10 08:02:12;;;;;;;;;;;10.50;99.90;;;;;;4971646;28;19926;-82
2023/03/10 08:04:39;;;;;;;;;;;10.50;99.90;;;;;;4971289;28;19957;-82
2023/03/10 08:07:07;;;;;;;;;;;10.40;99.90;;;;;;4969929;28;19922;-82
2023/03/10 08:09:34;;;;;;;;;;;10.30;99.90;;;;;;4964992;28;19929;-82
2023/03/10 08:12:01;;;;;;;;;;;10.40;99.90;;;;;;4980676;28;20028;-82
2023/03/10 08:14:28;;;;;;;;;;;10.50;99.90;;;;;;4969703;28;19932;-82
2023/03/10 08:16:56;;;;;;;;;;;10.70;99.90;;;;;;4986427;28;20529;-83
2023/03/10 08:19:22;;;;;;;;;;;11.00;99.90;;;;;;4973493;28;19926;-82
2023/03/10 08:21:50;;;;;;;;;;;11.30;99.90;;;;;;4962954;28;19932;-82
2023/03/10 08:24:19;;;;;;;;;;;11.60;99.90;;;;;;4972563;28;19932;-81
2023/03/10 08:26:45;;;;;;;;;;;12.60;99.90;;;;;;4964478;28;20367;-82
2023/03/10 08:29:12;;;;;;;;;;;12.00;99.90;;;;;;4986917;28;19992;-83
2023/03/10 08:31:39;;;;;;;;;;;12.00;99.90;;;;;;4971131;28;19926;-83
2023/03/10 08:34:05;;;;;;;;;;;11.80;99.90;;;;;;4971009;28;19933;-82
2023/03/10 08:36:32;;;;;;;;;;;11.90;99.90;;;;;;4977664;28;19969;-81
2023/03/10 08:39:01;;;;;;;;;;;12.40;99.90;;;;;;4985831;28;19926;-83
2023/03/10 08:41:31;;;;;;;;;;;12.20;99.90;;;;;;4975535;28;20024;-83
2023/03/10 08:43:59;;;;;;;;;;;12.10;99.90;;;;;;4976940;28;19926;-83
2023/03/10 08:46:28;;;;;;;;;;;12.40;99.90;;;;;;4972317;28;19933;-83
2023/03/10 08:48:55;;;;;;;;;;;10.70;99.90;;;;;;4973028;28;20418;-83
2023/03/10 08:51:22;;;;;;;;;;;12.50;99.90;;;;;;4977228;28;19941;-83
2023/03/10 08:53:49;;;;;;;;;;;12.80;99.90;;;;;;4982768;28;19926;-84
2023/03/10 08:56:18;;;;;;;;;;;12.70;99.90;;;;;;4966494;28;19934;-83
2023/03/10 08:58:46;;;;;;;;;;;12.90;99.90;;;;;;4983501;28;19941;-83
2023/03/10 09:01:13;;;;;;;;;;;12.60;99.90;;;;;;4961868;28;20025;-82
2023/03/10 09:03:40;;;;;;;;;;;12.70;99.90;;;;;;4959217;29;19933;-83
2023/03/10 09:06:07;;;;;;;;;;;12.70;99.90;;;;;;4992903;28;19933;-81
2023/03/10 09:08:34;;;;;;;;;;;12.80;99.90;;;;;;4982783;28;19969;-84
2023/03/10 09:11:01;;;;;;;;;;;12.90;99.90;;;;;;4986619;28;20015;-83
2023/03/10 09:13:28;;;;;;;;;;;13.00;99.90;;;;;;4976886;28;19929;-84
2023/03/10 09:15:56;;;;;;;;;;;13.20;99.90;;;;;;4989794;28;19926;-83
2023/03/10 09:18:23;;;;;;;;;;;13.60;99.90;;;;;;4973407;28;19957;-83
2023/03/10 09:20:50;;;;;;;;;;;13.80;99.90;;;;;;4975843;28;19941;-83
2023/03/10 09:23:17;;;;;;;;;;;14.10;99.90;;;;;;4977267;28;20028;-83
2023/03/10 09:25:44;;;;;;;;;;;14.40;99.90;;;;;;4968897;28;19921;-84
2023/03/10 09:28:11;;;;;;;;;;;14.40;99.90;;;;;;4975898;28;19934;-84
2023/03/10 09:30:39;;;;;;;;;;;14.20;99.90;;;;;;4975195;28;19925;-83
2023/03/10 09:33:08;;;;;;;;;;;14.70;99.90;;;;;;4968660;28;19933;-83
2023/03/10 09:35:34;;;;;;;;;;;14.70;99.90;;;;;;4983944;28;19957;-84
2023/03/10 09:38:02;;;;;;;;;;;;;;;;;;4970471;28;19930;-85
2023/03/10 09:40:29;;;;;;;;;;;15.00;99.90;;;;;;4989708;28;19926;-84
2023/03/10 09:42:58;;;;;;;;;;;14.80;99.90;;;;;;4972333;28;19922;-84
2023/03/10 09:45:30;;;;;;;;;;;14.80;99.90;;;;;;4991109;28;19993;-83
2023/03/10 09:48:13;;;;;;;;;;;14.70;99.90;;;;;;4988785;28;19938;-83
2023/03/10 09:50:44;;;;;;;;;;;14.70;99.90;;;;;;4963912;28;19949;-84
2023/03/10 09:53:21;;;;;;;;;;;14.60;99.90;;;;;;4982672;28;19926;-83
2023/03/10 09:55:47;;;;;;;;;;;14.70;99.90;;;;;;4955261;28;19926;-84
2023/03/10 09:58:18;;;;;;;;;;;14.90;99.90;;;;;;4980584;28;20243;-84
2023/03/10 10:00:45;;;;;;;;;;;14.90;99.90;;;;;;4970085;28;19933;-85
2023/03/10 10:03:15;;;;;;;;;;;15.10;99.90;;;;;;4956650;28;19937;-84
2023/03/10 10:05:44;;;;;;;;;;;15.60;99.90;;;;;;4979673;28;19925;-84
2023/03/10 10:08:14;;;;;;;;;;;15.60;99.90;;;;;;4988981;28;19926;-83
2023/03/10 10:10:42;;;;;;;;;;;15.80;99.90;;;;;;4960292;28;19926;-83
2023/03/10 10:13:11;;;;;;;;;;;16.00;99.90;;;;;;4989762;28;19910;-81
2023/03/10 10:15:39;;;;;;;;;;;16.10;99.90;;;;;;4999396;28;19928;-84
2023/03/10 10:18:08;;;;;;;;;;;16.30;99.90;;;;;;4978332;28;19968;-84
2023/03/10 10:20:37;;;;;;;;;;;16.70;99.90;;;;;;4977704;28;19930;-83
2023/03/10 10:23:13;;;;;;;;;;;16.90;99.90;;;;;;4962947;29;19946;-83
2023/03/10 10:25:40;;;;;;;;;;;17.10;99.90;;;;;;4968570;28;20463;-84
2023/03/10 10:28:14;;;;;;;;;;;17.20;99.90;;;;;;4988916;28;19925;-83
2023/03/10 10:30:41;;;;;;;;;;;17.30;99.90;;;;;;4988469;28;19929;-82
2023/03/10 10:33:09;;;;;;;;;;;17.30;99.90;;;;;;4971503;28;20357;-82
2023/03/10 10:35:39;;;;;;;;;;;17.40;99.90;;;;;;4989376;28;19933;-84
2023/03/10 10:38:19;;;;;;;;;;;17.50;99.90;;;;;;4970038;28;19936;-84
2023/03/10 10:40:47;;;;;;;;;;;17.40;99.90;;;;;;4958571;28;20270;-83
2023/03/10 10:43:16;;;;;;;;;;;17.40;99.90;;;;;;4983661;28;20315;-84
2023/03/10 10:45:52;;;;;;;;;;;17.40;99.90;;;;;;4966285;28;19922;-83
2023/03/10 10:48:35;;;;;;;;;;;17.50;99.90;;;;;;4978080;28;20469;-83
2023/03/10 10:51:02;;;;;;;;;;;17.70;99.90;;;;;;4998368;28;19926;-82
2023/03/10 10:53:33;;;;;;;;;;;17.70;99.90;;;;;;4992576;28;19910;-84
2023/03/10 10:56:01;;;;;;;;;;;17.80;99.90;;;;;;4983661;28;19930;-84
2023/03/10 10:58:30;;;;;;;;;;;17.60;99.90;;;;;;4988907;28;19984;-84
2023/03/10 11:00:57;;;;;;;;;;;17.50;99.90;;;;;;4967352;28;19946;-83
2023/03/10 11:03:25;;;;;;;;;;;17.10;99.90;;;;;;4977263;28;19930;-84
2023/03/10 11:05:52;;;;;;;;;;;17.00;99.90;;;;;;4974734;28;19930;-84
2023/03/10 11:08:28;;;;;;;;;;;16.70;99.90;;;;;;4973546;28;19922;-83
2023/03/10 11:10:57;;;;;;;;;;;16.40;99.90;;;;;;4980570;28;19926;-84
2023/03/10 11:13:25;;;;;;;;;;;16.30;99.90;;;;;;4975498;28;19922;-83
2023/03/10 11:15:57;;;;;;;;;;;16.30;99.90;;;;;;4973629;28;19967;-83
2023/03/10 11:18:26;;;;;;;;;;;16.30;99.90;;;;;;4973420;28;20473;-83
2023/03/10 11:20:59;;;;;;;;;;;16.10;99.90;;;;;;4982826;28;19948;-83
2023/03/10 11:23:30;;;;;;;;;;;16.10;99.90;;;;;;4974749;28;19925;-83
2023/03/10 11:26:01;;;;;;;;;;;15.80;99.90;;;;;;4987485;28;20009;-83
2023/03/10 11:28:36;;;;;;;;;;;15.20;99.90;;;;;;4986812;28;19937;-82
2023/03/10 11:31:10;;;;;;;;;;;15.20;99.90;;;;;;4975288;28;19926;-84
2023/03/10 11:33:41;;;;;;;;;;;14.70;99.90;;;;;;4969227;28;19932;-83
2023/03/10 11:36:14;;;;;;;;;;;14.60;99.90;;;;;;4969593;28;20403;-83
2023/03/10 11:38:42;;;;;;;;;;;14.60;99.90;;;;;;4970210;28;19979;-82
2023/03/10 11:41:13;;;;;;;;;;;14.50;99.90;;;;;;4995310;28;19933;-82
2023/03/10 11:43:54;;;;;;;;;;;14.50;99.90;;;;;;4990880;28;20392;-83
2023/03/10 11:46:23;;;;;;;;;;;14.50;99.90;;;;;;4988816;28;20055;-82
2023/03/10 11:48:54;;;;;;;;;;;14.40;99.90;;;;;;4973780;28;19984;-84
2023/03/10 11:51:25;;;;;;;;;;;14.30;99.90;;;;;;4971332;28;19933;-83
2023/03/10 11:53:55;;;;;;;;;;;14.30;99.90;;;;;;4981918;28;19926;-82
2023/03/10 11:56:24;;;;;;;;;;;14.00;99.90;;;;;;4974980;28;19922;-84
2023/03/10 11:58:53;;;;;;;;;;;13.60;99.90;;;;;;4972248;28;20388;-87
2023/03/10 12:01:23;;;;;;;;;;;13.30;99.90;;;;;;4972393;28;19937;-86
2023/03/10 12:03:53;;;;;;;;;;;13.20;99.90;;;;;;4978321;28;19945;-85
2023/03/10 12:06:21;;;;;;;;;;;12.90;99.90;;;;;;4987360;28;20415;-86
2023/03/10 12:08:51;;;;;;;;;;;12.80;99.90;;;;;;4990341;28;19920;-85
2023/03/10 12:11:21;;;;;;;;;;;12.60;99.90;;;;;;4993692;28;19989;-86
2023/03/10 12:13:51;;;;;;;;;;;12.60;99.90;;;;;;4978936;28;19926;-86
2023/03/10 12:16:20;;;;;;;;;;;12.60;99.90;;;;;;4972622;28;19929;-85
2023/03/10 12:18:47;;;;;;;;;;;13.00;99.90;;;;;;4974837;28;19922;-85
2023/03/10 12:21:15;;;;;;;;;;;12.90;99.90;;;;;;4979599;28;19926;-86
2023/03/10 12:23:42;;;;;;;;;;;12.90;99.90;;;;;;4973946;28;20008;-86
2023/03/10 12:26:09;;;;;;;;;;;12.80;99.90;;;;;;4980690;28;20424;-85
2023/03/10 12:28:36;;;;;;;;;;;12.70;99.90;;;;;;4970770;28;19926;-85
2023/03/10 12:31:05;;;;;;;;;;;12.60;99.90;;;;;;4978990;28;19929;-86
2023/03/10 12:33:47;;;;;;;;;;;12.50;99.90;;;;;;4982188;28;19929;-85
2023/03/10 12:36:16;;;;;;;;;;;12.40;99.90;;;;;;4986090;28;19922;-86
2023/03/10 12:38:45;;;;;;;;;;;12.10;99.90;;;;;;4986212;28;20044;-86
2023/03/10 12:41:12;;;;;;;;;;;12.10;99.90;;;;;;4980372;28;19961;-84
2023/03/10 12:44:03;;;;;;;;;;;11.90;99.90;;;;;;4991129;28;19993;-85
2023/03/10 12:46:44;;;;;;;;;;;11.90;99.90;;;;;;4976059;28;19930;-85
2023/03/10 12:49:29;;;;;;;;;;;12.00;99.90;;;;;;4963386;28;19922;-83
2023/03/10 12:51:59;;;;;;;;;;;12.10;99.90;;;;;;4970323;28;19926;-82
2023/03/10 12:54:33;;;;;;;;;;;12.00;99.90;;;;;;4981054;28;19951;-83
2023/03/10 12:57:04;;;;;;;;;;;12.00;99.90;;;;;;4984256;28;19930;-85
2023/03/10 12:59:33;;;;;;;;;;;11.70;99.90;;;;;;5007691;28;19922;-81
2023/03/10 13:02:01;;;;;;;;;;;11.50;99.90;;;;;;4965607;28;19926;-81
2023/03/10 13:04:28;;;;;;;;;;;11.40;99.90;;;;;;4999655;28;19926;-82
2023/03/10 13:07:02;;;;;;;;;;;11.40;99.90;;;;;;4980066;28;19926;-82
2023/03/10 13:09:31;;;;;;;;;;;11.50;99.90;;;;;;4975899;28;19933;-82
2023/03/10 13:11:59;;;;;;;;;;;11.60;99.90;;;;;;4982153;28;19937;-82
2023/03/10 13:14:33;;;;;;;;;;;11.60;99.90;;;;;;4990671;28;19936;-83
2023/03/10 13:17:02;;;;;;;;;;;11.60;99.90;;;;;;4991888;28;19930;-84
2023/03/10 13:19:33;;;;;;;;;;;11.60;99.90;;;;;;4990440;28;19933;-84
2023/03/10 13:22:00;;;;;;;;;;;11.60;99.90;;;;;;4968230;28;19928;-83
2023/03/10 13:24:27;;;;;;;;;;;11.60;99.90;;;;;;4957688;28;19934;-81
2023/03/10 13:27:04;;;;;;;;;;;11.60;99.90;;;;;;4980182;28;19933;-82
2023/03/10 13:29:31;;;;;;;;;;;11.50;99.90;;;;;;4960288;28;19923;-83
2023/03/10 13:31:58;;;;;;;;;;;11.40;99.90;;;;;;4967556;29;19926;-83
2023/03/10 13:34:31;;;;;;;;;;;11.30;99.90;;;;;;4972382;28;19948;-83
2023/03/10 13:37:02;;;;;;;;;;;11.10;99.90;;;;;;4983941;28;19922;-83
2023/03/10 13:39:29;;;;;;;;;;;10.90;99.90;;;;;;4974634;28;19926;-83
2023/03/10 13:41:58;;;;;;;;;;;10.90;99.90;;;;;;4982550;28;19932;-84
2023/03/10 13:44:26;;;;;;;;;;;10.90;99.90;;;;;;4991933;28;19941;-83
2023/03/10 13:46:57;;;;;;;;;;;10.80;99.90;;;;;;4966202;28;19926;-83
2023/03/10 13:49:26;;;;;;;;;;;10.60;99.90;;;;;;4981205;28;19922;-83
2023/03/10 13:51:58;;;;;;;;;;;10.70;99.90;;;;;;4978431;28;19933;-82
2023/03/10 13:54:26;;;;;;;;;;;10.50;99.90;;;;;;4975111;28;19926;-83
2023/03/10 13:56:54;;;;;;;;;;;8.20;99.90;;;;;;4976542;28;19936;-82
2023/03/10 13:59:23;;;;;;;;;;;10.40;99.90;;;;;;4978606;28;19927;-82
2023/03/10 14:01:52;;;;;;;;;;;10.40;99.90;;;;;;4989343;28;19916;-82
2023/03/10 14:04:37;;;;;;;;;;;10.50;99.90;;;;;;4993171;28;19917;-83
2023/03/10 14:07:09;;;;;;;;;;;10.50;99.90;;;;;;4996670;28;19933;-82
2023/03/10 14:09:36;;;;;;;;;;;10.50;99.90;;;;;;4989176;28;19910;-82
2023/03/10 14:12:06;;;;;;;;;;;10.50;99.90;;;;;;4992651;28;19932;-83
2023/03/10 14:14:34;;;;;;;;;;;10.50;99.90;;;;;;4994677;28;19924;-82
2023/03/10 14:17:02;;;;;;;;;;;10.40;99.90;;;;;;4980885;28;19957;-82
2023/03/10 14:19:36;;;;;;;;;;;10.40;99.90;;;;;;4973948;28;19926;-84
2023/03/10 14:22:03;;;;;;;;;;;10.40;99.90;;;;;;4982169;28;19922;-84
2023/03/10 14:24:31;;;;;;;;;;;10.30;99.90;;;;;;4990858;28;21290;-84
2023/03/10 14:27:02;;;;;;;;;;;10.30;99.90;;;;;;4965509;28;19928;-84
2023/03/10 14:29:31;;;;;;;;;;;10.30;99.90;;;;;;4969791;28;19922;-84
2023/03/10 14:31:58;;;;;;;;;;;10.20;99.90;;;;;;4976731;28;19926;-84
2023/03/10 14:34:24;;;;;;;;;;;10.30;99.90;;;;;;4972086;28;20365;-83
2023/03/10 14:36:51;;;;;;;;;;;10.20;99.90;;;;;;4980261;28;19926;-83